sensor_id;sensor_type;location;lat;lon;timestamp;P1;durP1;ratioP1;P2;durP2;ratioP2
20721;SDS011;10522;52.198;9.890;2023-12-22T00:01:39;21.03;;;3.27;;
20721;SDS011;10522;52.198;9.890;2023-12-22T00:04:05;24.90;;;3.27;;
20721;SDS011;10522;52.198;9.890;2023-12-22T00:06:31;15.50;;;4.40;;
20721;SDS011;10522;52.198;9.890;2023-12-22T00:08:57;23.80;;;4.47;;
20721;SDS011;10522;52.198;9.890;2023-12-22T00:11:23;16.20;;;3.17;;
20721;SDS011;10522;52.198;9.890;2023-12-22T00:13:48;9.93;;;2.77;;
20721;SDS011;10522;52.198;9.890;2023-12-22T00:16:14;9.17;;;3.07;;
20721;SDS011;10522;52.198;9.890;2023-12-22T00:18:39;15.53;;;2.77;;
20721;SDS011;10522;52.198;9.890;2023-12-22T00:21:08;10.57;;;1.50;;
20721;SDS011;10522;52.198;9.890;2023-12-22T00:23:35;13.57;;;2.60;;
20721;SDS011;10522;52.198;9.890;2023-12-22T00:26:01;7.83;;;2.33;;
20721;SDS011;10522;52.198;9.890;2023-12-22T00:28:27;11.30;;;2.20;;
20721;SDS011;10522;52.198;9.890;2023-12-22T00:30:52;8.97;;;2.30;;
20721;SDS011;10522;52.198;9.890;2023-12-22T00:33:18;12.27;;;2.20;;
20721;SDS011;10522;52.198;9.890;2023-12-22T00:35:43;21.07;;;2.63;;
20721;SDS011;10522;52.198;9.890;2023-12-22T00:38:09;15.53;;;2.83;;
20721;SDS011;10522;52.198;9.890;2023-12-22T00:40:35;7.30;;;1.70;;
20721;SDS011;10522;52.198;9.890;2023-12-22T00:43:00;8.63;;;2.57;;
20721;SDS011;10522;52.198;9.890;2023-12-22T00:45:26;8.77;;;2.27;;
20721;SDS011;10522;52.198;9.890;2023-12-22T00:47:52;7.67;;;1.67;;
20721;SDS011;10522;52.198;9.890;2023-12-22T00:50:17;12.23;;;2.73;;
20721;SDS011;10522;52.198;9.890;2023-12-22T00:52:43;20.20;;;2.80;;
20721;SDS011;10522;52.198;9.890;2023-12-22T00:55:09;14.20;;;3.00;;
20721;SDS011;10522;52.198;9.890;2023-12-22T00:57:34;17.53;;;2.60;;
20721;SDS011;10522;52.198;9.890;2023-12-22T01:00:00;14.43;;;3.70;;
20721;SDS011;10522;52.198;9.890;2023-12-22T01:02:26;12.47;;;3.30;;
20721;SDS011;10522;52.198;9.890;2023-12-22T01:04:51;20.43;;;3.13;;
20721;SDS011;10522;52.198;9.890;2023-12-22T01:07:17;10.00;;;2.77;;
20721;SDS011;10522;52.198;9.890;2023-12-22T01:09:43;10.97;;;2.63;;
20721;SDS011;10522;52.198;9.890;2023-12-22T01:12:09;13.63;;;2.87;;
20721;SDS011;10522;52.198;9.890;2023-12-22T01:14:35;11.80;;;4.30;;
20721;SDS011;10522;52.198;9.890;2023-12-22T01:17:01;7.33;;;2.43;;
20721;SDS011;10522;52.198;9.890;2023-12-22T01:19:27;8.67;;;1.77;;
20721;SDS011;10522;52.198;9.890;2023-12-22T01:21:52;7.97;;;2.20;;
20721;SDS011;10522;52.198;9.890;2023-12-22T01:24:18;16.37;;;2.53;;
20721;SDS011;10522;52.198;9.890;2023-12-22T01:26:44;19.77;;;2.20;;
20721;SDS011;10522;52.198;9.890;2023-12-22T01:29:10;8.50;;;2.23;;
20721;SDS011;10522;52.198;9.890;2023-12-22T01:31:35;13.70;;;2.47;;
20721;SDS011;10522;52.198;9.890;2023-12-22T01:34:01;13.83;;;2.97;;
20721;SDS011;10522;52.198;9.890;2023-12-22T01:36:26;10.73;;;2.60;;
20721;SDS011;10522;52.198;9.890;2023-12-22T01:38:52;13.67;;;3.03;;
20721;SDS011;10522;52.198;9.890;2023-12-22T01:41:17;10.93;;;2.23;;
20721;SDS011;10522;52.198;9.890;2023-12-22T01:43:43;9.23;;;2.20;;
20721;SDS011;10522;52.198;9.890;2023-12-22T01:46:09;13.30;;;2.90;;
20721;SDS011;10522;52.198;9.890;2023-12-22T01:48:36;12.97;;;3.37;;
20721;SDS011;10522;52.198;9.890;2023-12-22T01:51:02;14.20;;;2.30;;
20721;SDS011;10522;52.198;9.890;2023-12-22T01:53:29;10.73;;;2.17;;
20721;SDS011;10522;52.198;9.890;2023-12-22T01:55:56;6.63;;;1.63;;
20721;SDS011;10522;52.198;9.890;2023-12-22T01:58:24;17.87;;;3.07;;
20721;SDS011;10522;52.198;9.890;2023-12-22T02:00:54;10.80;;;2.90;;
20721;SDS011;10522;52.198;9.890;2023-12-22T02:03:21;10.27;;;2.50;;
20721;SDS011;10522;52.198;9.890;2023-12-22T02:05:47;8.53;;;1.33;;
20721;SDS011;10522;52.198;9.890;2023-12-22T02:08:13;6.73;;;1.40;;
20721;SDS011;10522;52.198;9.890;2023-12-22T02:10:42;5.10;;;1.57;;
20721;SDS011;10522;52.198;9.890;2023-12-22T02:13:08;7.63;;;2.40;;
20721;SDS011;10522;52.198;9.890;2023-12-22T02:15:34;6.43;;;1.73;;
20721;SDS011;10522;52.198;9.890;2023-12-22T02:20:29;6.10;;;2.13;;
20721;SDS011;10522;52.198;9.890;2023-12-22T02:22:56;15.23;;;2.73;;
20721;SDS011;10522;52.198;9.890;2023-12-22T02:25:22;6.33;;;2.00;;
20721;SDS011;10522;52.198;9.890;2023-12-22T02:27:48;2.57;;;1.30;;
20721;SDS011;10522;52.198;9.890;2023-12-22T02:30:25;7.10;;;1.70;;
20721;SDS011;10522;52.198;9.890;2023-12-22T02:33:04;6.30;;;2.07;;
20721;SDS011;10522;52.198;9.890;2023-12-22T02:35:32;4.20;;;1.37;;
20721;SDS011;10522;52.198;9.890;2023-12-22T02:38:01;5.10;;;1.23;;
20721;SDS011;10522;52.198;9.890;2023-12-22T02:40:29;9.67;;;1.83;;
20721;SDS011;10522;52.198;9.890;2023-12-22T02:42:55;10.33;;;1.90;;
20721;SDS011;10522;52.198;9.890;2023-12-22T02:45:21;9.20;;;1.77;;
20721;SDS011;10522;52.198;9.890;2023-12-22T02:47:47;7.13;;;1.37;;
20721;SDS011;10522;52.198;9.890;2023-12-22T02:50:13;7.30;;;1.40;;
20721;SDS011;10522;52.198;9.890;2023-12-22T02:52:40;6.40;;;2.07;;
20721;SDS011;10522;52.198;9.890;2023-12-22T02:55:06;4.03;;;2.00;;
20721;SDS011;10522;52.198;9.890;2023-12-22T02:57:32;4.20;;;1.30;;
20721;SDS011;10522;52.198;9.890;2023-12-22T02:59:58;8.07;;;1.53;;
20721;SDS011;10522;52.198;9.890;2023-12-22T03:02:24;11.40;;;1.43;;
20721;SDS011;10522;52.198;9.890;2023-12-22T03:04:50;6.63;;;2.10;;
20721;SDS011;10522;52.198;9.890;2023-12-22T03:07:15;5.73;;;1.27;;
20721;SDS011;10522;52.198;9.890;2023-12-22T03:09:41;1.10;;;0.87;;
20721;SDS011;10522;52.198;9.890;2023-12-22T03:12:07;5.03;;;1.60;;
20721;SDS011;10522;52.198;9.890;2023-12-22T03:14:33;3.43;;;1.10;;
20721;SDS011;10522;52.198;9.890;2023-12-22T03:16:59;6.60;;;1.47;;
20721;SDS011;10522;52.198;9.890;2023-12-22T03:19:25;2.00;;;1.43;;
20721;SDS011;10522;52.198;9.890;2023-12-22T03:21:51;5.87;;;1.17;;
20721;SDS011;10522;52.198;9.890;2023-12-22T03:24:17;7.07;;;1.60;;
20721;SDS011;10522;52.198;9.890;2023-12-22T03:26:44;11.07;;;2.33;;
20721;SDS011;10522;52.198;9.890;2023-12-22T03:29:10;7.70;;;1.70;;
20721;SDS011;10522;52.198;9.890;2023-12-22T03:31:36;10.60;;;1.83;;
20721;SDS011;10522;52.198;9.890;2023-12-22T03:34:01;17.90;;;2.07;;
20721;SDS011;10522;52.198;9.890;2023-12-22T03:36:27;10.83;;;1.93;;
20721;SDS011;10522;52.198;9.890;2023-12-22T03:38:53;9.13;;;2.33;;
20721;SDS011;10522;52.198;9.890;2023-12-22T03:41:18;8.10;;;1.87;;
20721;SDS011;10522;52.198;9.890;2023-12-22T03:43:44;19.83;;;2.67;;
20721;SDS011;10522;52.198;9.890;2023-12-22T03:46:09;13.73;;;2.60;;
20721;SDS011;10522;52.198;9.890;2023-12-22T03:48:35;18.53;;;2.47;;
20721;SDS011;10522;52.198;9.890;2023-12-22T03:51:00;6.97;;;1.80;;
20721;SDS011;10522;52.198;9.890;2023-12-22T03:53:26;12.90;;;2.30;;
20721;SDS011;10522;52.198;9.890;2023-12-22T03:55:52;12.83;;;2.00;;
20721;SDS011;10522;52.198;9.890;2023-12-22T03:58:17;3.43;;;1.30;;
20721;SDS011;10522;52.198;9.890;2023-12-22T04:00:43;14.63;;;2.70;;
20721;SDS011;10522;52.198;9.890;2023-12-22T04:03:08;19.77;;;2.90;;
20721;SDS011;10522;52.198;9.890;2023-12-22T04:05:34;17.87;;;2.73;;
20721;SDS011;10522;52.198;9.890;2023-12-22T04:07:59;11.20;;;2.20;;
20721;SDS011;10522;52.198;9.890;2023-12-22T04:10:25;17.13;;;2.50;;
20721;SDS011;10522;52.198;9.890;2023-12-22T04:12:50;9.83;;;2.73;;
20721;SDS011;10522;52.198;9.890;2023-12-22T04:15:16;16.37;;;2.67;;
20721;SDS011;10522;52.198;9.890;2023-12-22T04:17:41;17.50;;;2.90;;
20721;SDS011;10522;52.198;9.890;2023-12-22T04:20:07;14.10;;;2.60;;
20721;SDS011;10522;52.198;9.890;2023-12-22T04:22:33;3.93;;;1.10;;
20721;SDS011;10522;52.198;9.890;2023-12-22T04:24:58;18.63;;;2.10;;
20721;SDS011;10522;52.198;9.890;2023-12-22T04:27:24;10.30;;;2.07;;
20721;SDS011;10522;52.198;9.890;2023-12-22T04:29:50;10.53;;;2.27;;
20721;SDS011;10522;52.198;9.890;2023-12-22T04:32:15;18.53;;;2.30;;
20721;SDS011;10522;52.198;9.890;2023-12-22T04:34:41;6.67;;;2.03;;
20721;SDS011;10522;52.198;9.890;2023-12-22T04:37:06;8.67;;;1.90;;
20721;SDS011;10522;52.198;9.890;2023-12-22T04:39:32;12.23;;;1.70;;
20721;SDS011;10522;52.198;9.890;2023-12-22T04:41:58;12.20;;;3.47;;
20721;SDS011;10522;52.198;9.890;2023-12-22T04:44:23;10.20;;;2.20;;
20721;SDS011;10522;52.198;9.890;2023-12-22T04:46:49;6.23;;;1.87;;
20721;SDS011;10522;52.198;9.890;2023-12-22T04:49:15;12.40;;;1.50;;
20721;SDS011;10522;52.198;9.890;2023-12-22T04:51:40;23.20;;;2.83;;
20721;SDS011;10522;52.198;9.890;2023-12-22T04:54:06;17.97;;;2.30;;
20721;SDS011;10522;52.198;9.890;2023-12-22T04:56:31;6.87;;;1.80;;
20721;SDS011;10522;52.198;9.890;2023-12-22T04:58:57;10.20;;;2.07;;
20721;SDS011;10522;52.198;9.890;2023-12-22T05:01:23;9.63;;;2.27;;
20721;SDS011;10522;52.198;9.890;2023-12-22T05:03:48;9.00;;;1.83;;
20721;SDS011;10522;52.198;9.890;2023-12-22T05:06:14;7.43;;;2.03;;
20721;SDS011;10522;52.198;9.890;2023-12-22T05:08:39;8.37;;;2.20;;
20721;SDS011;10522;52.198;9.890;2023-12-22T05:11:05;7.97;;;2.67;;
20721;SDS011;10522;52.198;9.890;2023-12-22T05:13:31;7.10;;;1.60;;
20721;SDS011;10522;52.198;9.890;2023-12-22T05:15:56;12.50;;;2.57;;
20721;SDS011;10522;52.198;9.890;2023-12-22T05:18:22;13.17;;;3.07;;
20721;SDS011;10522;52.198;9.890;2023-12-22T05:20:49;11.87;;;2.17;;
20721;SDS011;10522;52.198;9.890;2023-12-22T05:23:15;11.70;;;2.27;;
20721;SDS011;10522;52.198;9.890;2023-12-22T05:25:41;8.73;;;1.20;;
20721;SDS011;10522;52.198;9.890;2023-12-22T05:28:06;8.70;;;1.30;;
20721;SDS011;10522;52.198;9.890;2023-12-22T05:30:32;6.87;;;1.10;;
20721;SDS011;10522;52.198;9.890;2023-12-22T05:32:57;8.63;;;2.03;;
20721;SDS011;10522;52.198;9.890;2023-12-22T05:35:23;9.73;;;2.07;;
20721;SDS011;10522;52.198;9.890;2023-12-22T05:37:48;2.60;;;1.27;;
20721;SDS011;10522;52.198;9.890;2023-12-22T05:40:15;6.53;;;1.73;;
20721;SDS011;10522;52.198;9.890;2023-12-22T05:42:41;8.07;;;1.50;;
20721;SDS011;10522;52.198;9.890;2023-12-22T05:45:07;12.60;;;2.27;;
20721;SDS011;10522;52.198;9.890;2023-12-22T05:47:33;5.97;;;1.97;;
20721;SDS011;10522;52.198;9.890;2023-12-22T05:49:59;6.50;;;1.50;;
20721;SDS011;10522;52.198;9.890;2023-12-22T05:52:24;9.37;;;2.17;;
20721;SDS011;10522;52.198;9.890;2023-12-22T05:54:50;10.07;;;2.43;;
20721;SDS011;10522;52.198;9.890;2023-12-22T05:57:15;11.00;;;3.00;;
20721;SDS011;10522;52.198;9.890;2023-12-22T05:59:42;6.13;;;1.67;;
20721;SDS011;10522;52.198;9.890;2023-12-22T06:02:07;8.10;;;1.73;;
20721;SDS011;10522;52.198;9.890;2023-12-22T06:04:33;8.30;;;1.70;;
20721;SDS011;10522;52.198;9.890;2023-12-22T06:06:59;12.10;;;1.97;;
20721;SDS011;10522;52.198;9.890;2023-12-22T06:09:25;15.80;;;2.07;;
20721;SDS011;10522;52.198;9.890;2023-12-22T06:11:51;11.63;;;1.73;;
20721;SDS011;10522;52.198;9.890;2023-12-22T06:14:16;5.80;;;1.73;;
20721;SDS011;10522;52.198;9.890;2023-12-22T06:16:42;6.40;;;1.93;;
20721;SDS011;10522;52.198;9.890;2023-12-22T06:19:08;17.40;;;2.23;;
20721;SDS011;10522;52.198;9.890;2023-12-22T06:21:37;6.00;;;1.10;;
20721;SDS011;10522;52.198;9.890;2023-12-22T06:24:03;2.43;;;1.07;;
20721;SDS011;10522;52.198;9.890;2023-12-22T06:26:28;5.90;;;0.80;;
20721;SDS011;10522;52.198;9.890;2023-12-22T06:28:54;5.50;;;0.97;;
20721;SDS011;10522;52.198;9.890;2023-12-22T06:31:20;6.20;;;1.23;;
20721;SDS011;10522;52.198;9.890;2023-12-22T06:33:47;8.47;;;1.70;;
20721;SDS011;10522;52.198;9.890;2023-12-22T06:36:24;6.87;;;1.47;;
20721;SDS011;10522;52.198;9.890;2023-12-22T06:38:50;5.57;;;1.20;;
20721;SDS011;10522;52.198;9.890;2023-12-22T06:41:22;7.13;;;1.70;;
20721;SDS011;10522;52.198;9.890;2023-12-22T06:43:49;13.07;;;1.67;;
20721;SDS011;10522;52.198;9.890;2023-12-22T06:46:20;1.47;;;0.70;;
20721;SDS011;10522;52.198;9.890;2023-12-22T06:48:47;3.53;;;0.80;;
20721;SDS011;10522;52.198;9.890;2023-12-22T06:53:52;1.87;;;0.70;;
20721;SDS011;10522;52.198;9.890;2023-12-22T06:56:20;1.80;;;0.40;;
20721;SDS011;10522;52.198;9.890;2023-12-22T06:58:47;0.30;;;0.30;;
20721;SDS011;10522;52.198;9.890;2023-12-22T07:03:49;0.53;;;0.40;;
20721;SDS011;10522;52.198;9.890;2023-12-22T07:06:15;0.37;;;0.37;;
20721;SDS011;10522;52.198;9.890;2023-12-22T07:08:42;0.40;;;0.40;;
20721;SDS011;10522;52.198;9.890;2023-12-22T07:11:08;0.33;;;0.33;;
20721;SDS011;10522;52.198;9.890;2023-12-22T07:13:34;0.30;;;0.30;;
20721;SDS011;10522;52.198;9.890;2023-12-22T07:16:00;0.60;;;0.60;;
20721;SDS011;10522;52.198;9.890;2023-12-22T07:18:27;1.17;;;0.40;;
20721;SDS011;10522;52.198;9.890;2023-12-22T07:20:55;2.57;;;0.80;;
20721;SDS011;10522;52.198;9.890;2023-12-22T07:23:25;1.60;;;0.80;;
20721;SDS011;10522;52.198;9.890;2023-12-22T07:25:50;2.80;;;0.53;;
20721;SDS011;10522;52.198;9.890;2023-12-22T07:28:16;5.30;;;1.60;;
20721;SDS011;10522;52.198;9.890;2023-12-22T07:30:41;15.57;;;2.43;;
20721;SDS011;10522;52.198;9.890;2023-12-22T07:33:07;4.53;;;0.97;;
20721;SDS011;10522;52.198;9.890;2023-12-22T07:35:33;8.97;;;1.77;;
20721;SDS011;10522;52.198;9.890;2023-12-22T07:37:59;11.47;;;2.73;;
20721;SDS011;10522;52.198;9.890;2023-12-22T07:40:25;13.33;;;2.73;;
20721;SDS011;10522;52.198;9.890;2023-12-22T07:42:50;7.40;;;2.30;;
20721;SDS011;10522;52.198;9.890;2023-12-22T07:45:16;8.97;;;2.10;;
20721;SDS011;10522;52.198;9.890;2023-12-22T07:47:42;10.40;;;2.33;;
20721;SDS011;10522;52.198;9.890;2023-12-22T07:50:07;7.53;;;2.63;;
20721;SDS011;10522;52.198;9.890;2023-12-22T07:52:36;7.27;;;1.37;;
20721;SDS011;10522;52.198;9.890;2023-12-22T07:55:12;8.23;;;2.13;;
20721;SDS011;10522;52.198;9.890;2023-12-22T07:57:38;8.03;;;2.00;;
20721;SDS011;10522;52.198;9.890;2023-12-22T08:00:04;8.77;;;1.87;;
20721;SDS011;10522;52.198;9.890;2023-12-22T08:02:30;19.90;;;2.87;;
20721;SDS011;10522;52.198;9.890;2023-12-22T08:04:56;12.37;;;2.00;;
20721;SDS011;10522;52.198;9.890;2023-12-22T08:07:22;12.13;;;2.60;;
20721;SDS011;10522;52.198;9.890;2023-12-22T08:09:47;22.70;;;2.33;;
20721;SDS011;10522;52.198;9.890;2023-12-22T08:12:13;7.97;;;1.80;;
20721;SDS011;10522;52.198;9.890;2023-12-22T08:14:39;20.80;;;3.47;;
20721;SDS011;10522;52.198;9.890;2023-12-22T08:17:04;12.93;;;2.83;;
20721;SDS011;10522;52.198;9.890;2023-12-22T08:19:30;13.33;;;2.10;;
20721;SDS011;10522;52.198;9.890;2023-12-22T08:21:58;9.07;;;2.33;;
20721;SDS011;10522;52.198;9.890;2023-12-22T08:24:26;6.40;;;1.90;;
20721;SDS011;10522;52.198;9.890;2023-12-22T08:26:51;11.30;;;2.17;;
20721;SDS011;10522;52.198;9.890;2023-12-22T08:29:20;14.37;;;2.43;;
20721;SDS011;10522;52.198;9.890;2023-12-22T08:31:45;7.93;;;2.43;;
20721;SDS011;10522;52.198;9.890;2023-12-22T08:34:11;11.13;;;2.97;;
20721;SDS011;10522;52.198;9.890;2023-12-22T08:36:37;12.53;;;3.20;;
20721;SDS011;10522;52.198;9.890;2023-12-22T08:39:02;17.03;;;2.63;;
20721;SDS011;10522;52.198;9.890;2023-12-22T08:41:32;11.83;;;2.47;;
20721;SDS011;10522;52.198;9.890;2023-12-22T08:44:04;12.70;;;2.57;;
20721;SDS011;10522;52.198;9.890;2023-12-22T08:46:31;13.87;;;3.47;;
20721;SDS011;10522;52.198;9.890;2023-12-22T08:48:56;22.33;;;3.33;;
20721;SDS011;10522;52.198;9.890;2023-12-22T08:51:24;11.50;;;2.50;;
20721;SDS011;10522;52.198;9.890;2023-12-22T08:53:50;15.83;;;2.47;;
20721;SDS011;10522;52.198;9.890;2023-12-22T08:56:17;20.20;;;2.27;;
20721;SDS011;10522;52.198;9.890;2023-12-22T08:58:43;20.07;;;4.40;;
20721;SDS011;10522;52.198;9.890;2023-12-22T09:01:15;17.23;;;2.70;;
20721;SDS011;10522;52.198;9.890;2023-12-22T09:03:41;11.63;;;2.57;;
20721;SDS011;10522;52.198;9.890;2023-12-22T09:06:11;8.80;;;2.60;;
20721;SDS011;10522;52.198;9.890;2023-12-22T09:08:38;9.43;;;2.47;;
20721;SDS011;10522;52.198;9.890;2023-12-22T09:11:04;16.97;;;2.37;;
20721;SDS011;10522;52.198;9.890;2023-12-22T09:13:29;9.60;;;2.03;;
20721;SDS011;10522;52.198;9.890;2023-12-22T09:15:56;12.13;;;2.10;;
20721;SDS011;10522;52.198;9.890;2023-12-22T09:18:22;11.07;;;2.53;;
20721;SDS011;10522;52.198;9.890;2023-12-22T09:20:48;7.10;;;2.10;;
20721;SDS011;10522;52.198;9.890;2023-12-22T09:23:14;11.43;;;2.33;;
20721;SDS011;10522;52.198;9.890;2023-12-22T09:25:39;16.07;;;2.70;;
20721;SDS011;10522;52.198;9.890;2023-12-22T09:28:05;13.07;;;1.33;;
20721;SDS011;10522;52.198;9.890;2023-12-22T09:30:31;9.43;;;2.50;;
20721;SDS011;10522;52.198;9.890;2023-12-22T09:32:57;11.93;;;2.40;;
20721;SDS011;10522;52.198;9.890;2023-12-22T09:35:23;9.43;;;1.73;;
20721;SDS011;10522;52.198;9.890;2023-12-22T09:37:50;13.37;;;3.53;;
20721;SDS011;10522;52.198;9.890;2023-12-22T09:40:16;4.80;;;1.70;;
20721;SDS011;10522;52.198;9.890;2023-12-22T09:42:41;9.00;;;1.43;;
20721;SDS011;10522;52.198;9.890;2023-12-22T09:45:10;11.63;;;2.47;;
20721;SDS011;10522;52.198;9.890;2023-12-22T09:47:38;13.67;;;2.60;;
20721;SDS011;10522;52.198;9.890;2023-12-22T09:50:07;8.57;;;2.03;;
20721;SDS011;10522;52.198;9.890;2023-12-22T09:52:33;6.10;;;2.43;;
20721;SDS011;10522;52.198;9.890;2023-12-22T09:55:01;5.50;;;1.73;;
20721;SDS011;10522;52.198;9.890;2023-12-22T09:57:28;9.40;;;1.57;;
20721;SDS011;10522;52.198;9.890;2023-12-22T09:59:55;8.13;;;1.63;;
20721;SDS011;10522;52.198;9.890;2023-12-22T10:02:24;3.67;;;1.50;;
20721;SDS011;10522;52.198;9.890;2023-12-22T10:04:51;16.50;;;2.37;;
20721;SDS011;10522;52.198;9.890;2023-12-22T10:07:17;5.87;;;1.43;;
20721;SDS011;10522;52.198;9.890;2023-12-22T10:09:43;8.27;;;2.17;;
20721;SDS011;10522;52.198;9.890;2023-12-22T10:12:12;3.73;;;1.20;;
20721;SDS011;10522;52.198;9.890;2023-12-22T10:14:39;12.00;;;1.87;;
20721;SDS011;10522;52.198;9.890;2023-12-22T10:17:06;6.83;;;1.50;;
20721;SDS011;10522;52.198;9.890;2023-12-22T10:19:32;14.00;;;2.60;;
20721;SDS011;10522;52.198;9.890;2023-12-22T10:21:57;5.07;;;2.10;;
20721;SDS011;10522;52.198;9.890;2023-12-22T10:27:08;16.30;;;2.20;;
20721;SDS011;10522;52.198;9.890;2023-12-22T10:29:39;19.03;;;2.93;;
20721;SDS011;10522;52.198;9.890;2023-12-22T10:32:05;12.73;;;2.00;;
20721;SDS011;10522;52.198;9.890;2023-12-22T10:34:32;10.83;;;2.13;;
20721;SDS011;10522;52.198;9.890;2023-12-22T10:37:01;10.97;;;3.07;;
20721;SDS011;10522;52.198;9.890;2023-12-22T10:39:27;11.03;;;2.00;;
20721;SDS011;10522;52.198;9.890;2023-12-22T10:41:56;9.20;;;1.53;;
20721;SDS011;10522;52.198;9.890;2023-12-22T10:44:26;11.33;;;2.43;;
20721;SDS011;10522;52.198;9.890;2023-12-22T10:46:53;7.63;;;1.43;;
20721;SDS011;10522;52.198;9.890;2023-12-22T10:49:20;11.83;;;2.80;;
20721;SDS011;10522;52.198;9.890;2023-12-22T10:51:46;6.20;;;2.53;;
20721;SDS011;10522;52.198;9.890;2023-12-22T10:54:12;18.40;;;3.20;;
20721;SDS011;10522;52.198;9.890;2023-12-22T10:56:38;10.93;;;1.97;;
20721;SDS011;10522;52.198;9.890;2023-12-22T10:59:05;5.03;;;1.37;;
20721;SDS011;10522;52.198;9.890;2023-12-22T11:01:32;13.50;;;2.33;;
20721;SDS011;10522;52.198;9.890;2023-12-22T11:04:01;8.93;;;2.10;;
20721;SDS011;10522;52.198;9.890;2023-12-22T11:06:29;12.60;;;1.93;;
20721;SDS011;10522;52.198;9.890;2023-12-22T11:08:56;10.00;;;2.30;;
20721;SDS011;10522;52.198;9.890;2023-12-22T11:13:50;24.00;;;2.50;;
20721;SDS011;10522;52.198;9.890;2023-12-22T11:16:17;7.20;;;2.20;;
20721;SDS011;10522;52.198;9.890;2023-12-22T11:18:44;11.03;;;2.33;;
20721;SDS011;10522;52.198;9.890;2023-12-22T11:21:10;9.70;;;2.10;;
20721;SDS011;10522;52.198;9.890;2023-12-22T11:23:39;6.90;;;1.77;;
20721;SDS011;10522;52.198;9.890;2023-12-22T11:26:06;15.03;;;2.93;;
20721;SDS011;10522;52.198;9.890;2023-12-22T11:28:36;4.00;;;2.13;;
20721;SDS011;10522;52.198;9.890;2023-12-22T11:31:03;10.70;;;2.37;;
20721;SDS011;10522;52.198;9.890;2023-12-22T11:33:31;5.23;;;1.60;;
20721;SDS011;10522;52.198;9.890;2023-12-22T11:36:00;7.63;;;1.47;;
20721;SDS011;10522;52.198;9.890;2023-12-22T11:38:28;4.23;;;1.20;;
20721;SDS011;10522;52.198;9.890;2023-12-22T11:40:53;14.63;;;1.53;;
20721;SDS011;10522;52.198;9.890;2023-12-22T11:43:20;3.37;;;1.67;;
20721;SDS011;10522;52.198;9.890;2023-12-22T11:45:48;4.83;;;1.10;;
20721;SDS011;10522;52.198;9.890;2023-12-22T11:48:14;12.17;;;1.33;;
20721;SDS011;10522;52.198;9.890;2023-12-22T11:50:41;14.03;;;2.60;;
20721;SDS011;10522;52.198;9.890;2023-12-22T11:53:17;4.33;;;1.40;;
20721;SDS011;10522;52.198;9.890;2023-12-22T11:58:42;5.03;;;1.23;;
20721;SDS011;10522;52.198;9.890;2023-12-22T12:01:18;3.73;;;1.23;;
20721;SDS011;10522;52.198;9.890;2023-12-22T12:03:56;13.10;;;2.63;;
20721;SDS011;10522;52.198;9.890;2023-12-22T12:08:55;3.97;;;1.23;;
20721;SDS011;10522;52.198;9.890;2023-12-22T12:11:22;2.43;;;1.27;;
20721;SDS011;10522;52.198;9.890;2023-12-22T12:13:48;6.57;;;1.30;;
20721;SDS011;10522;52.198;9.890;2023-12-22T12:16:15;10.53;;;1.57;;
20721;SDS011;10522;52.198;9.890;2023-12-22T12:18:46;7.00;;;1.60;;
20721;SDS011;10522;52.198;9.890;2023-12-22T12:21:12;6.70;;;1.43;;
20721;SDS011;10522;52.198;9.890;2023-12-22T12:23:38;8.57;;;1.50;;
20721;SDS011;10522;52.198;9.890;2023-12-22T12:26:08;8.17;;;1.47;;
20721;SDS011;10522;52.198;9.890;2023-12-22T12:28:34;13.43;;;2.10;;
20721;SDS011;10522;52.198;9.890;2023-12-22T12:31:08;8.63;;;1.87;;
20721;SDS011;10522;52.198;9.890;2023-12-22T12:33:35;6.63;;;1.77;;
20721;SDS011;10522;52.198;9.890;2023-12-22T12:36:01;5.20;;;1.43;;
20721;SDS011;10522;52.198;9.890;2023-12-22T12:38:40;4.83;;;1.10;;
20721;SDS011;10522;52.198;9.890;2023-12-22T12:41:22;3.13;;;1.37;;
20721;SDS011;10522;52.198;9.890;2023-12-22T12:43:55;7.17;;;1.00;;
20721;SDS011;10522;52.198;9.890;2023-12-22T12:46:23;5.57;;;1.50;;
20721;SDS011;10522;52.198;9.890;2023-12-22T12:48:48;6.40;;;1.30;;
20721;SDS011;10522;52.198;9.890;2023-12-22T12:51:27;2.90;;;1.30;;
20721;SDS011;10522;52.198;9.890;2023-12-22T12:53:52;4.60;;;1.13;;
20721;SDS011;10522;52.198;9.890;2023-12-22T12:56:18;7.93;;;1.20;;
20721;SDS011;10522;52.198;9.890;2023-12-22T12:58:43;6.17;;;1.30;;
20721;SDS011;10522;52.198;9.890;2023-12-22T13:01:09;3.57;;;1.07;;
20721;SDS011;10522;52.198;9.890;2023-12-22T13:06:19;9.20;;;1.27;;
20721;SDS011;10522;52.198;9.890;2023-12-22T13:08:48;6.17;;;1.37;;
20721;SDS011;10522;52.198;9.890;2023-12-22T13:11:36;3.03;;;0.80;;
20721;SDS011;10522;52.198;9.890;2023-12-22T13:14:02;8.90;;;2.00;;
20721;SDS011;10522;52.198;9.890;2023-12-22T13:16:28;6.90;;;1.00;;
20721;SDS011;10522;52.198;9.890;2023-12-22T13:18:57;9.20;;;1.53;;
20721;SDS011;10522;52.198;9.890;2023-12-22T13:21:23;9.70;;;1.07;;
20721;SDS011;10522;52.198;9.890;2023-12-22T13:26:44;2.83;;;1.30;;
20721;SDS011;10522;52.198;9.890;2023-12-22T13:29:10;2.43;;;1.00;;
20721;SDS011;10522;52.198;9.890;2023-12-22T13:31:38;3.87;;;0.80;;
20721;SDS011;10522;52.198;9.890;2023-12-22T13:34:11;4.43;;;0.83;;
20721;SDS011;10522;52.198;9.890;2023-12-22T13:36:37;3.53;;;1.17;;
20721;SDS011;10522;52.198;9.890;2023-12-22T13:39:03;7.60;;;1.40;;
20721;SDS011;10522;52.198;9.890;2023-12-22T13:41:41;8.47;;;1.93;;
20721;SDS011;10522;52.198;9.890;2023-12-22T13:44:10;2.77;;;0.97;;
20721;SDS011;10522;52.198;9.890;2023-12-22T13:46:36;11.70;;;1.60;;
20721;SDS011;10522;52.198;9.890;2023-12-22T13:49:05;5.33;;;1.20;;
20721;SDS011;10522;52.198;9.890;2023-12-22T13:51:40;4.80;;;1.07;;
20721;SDS011;10522;52.198;9.890;2023-12-22T13:54:10;6.93;;;1.10;;
20721;SDS011;10522;52.198;9.890;2023-12-22T13:56:37;4.30;;;1.13;;
20721;SDS011;10522;52.198;9.890;2023-12-22T13:59:05;5.33;;;1.50;;
20721;SDS011;10522;52.198;9.890;2023-12-22T14:01:31;10.40;;;2.13;;
20721;SDS011;10522;52.198;9.890;2023-12-22T14:03:58;8.03;;;1.00;;
20721;SDS011;10522;52.198;9.890;2023-12-22T14:06:25;5.63;;;1.07;;
20721;SDS011;10522;52.198;9.890;2023-12-22T14:08:51;3.87;;;1.00;;
20721;SDS011;10522;52.198;9.890;2023-12-22T14:11:17;5.83;;;1.03;;
20721;SDS011;10522;52.198;9.890;2023-12-22T14:13:43;3.57;;;1.90;;
20721;SDS011;10522;52.198;9.890;2023-12-22T14:16:09;3.57;;;1.23;;
20721;SDS011;10522;52.198;9.890;2023-12-22T14:18:35;4.70;;;1.57;;
20721;SDS011;10522;52.198;9.890;2023-12-22T14:21:00;5.20;;;1.40;;
20721;SDS011;10522;52.198;9.890;2023-12-22T14:23:26;4.47;;;1.40;;
20721;SDS011;10522;52.198;9.890;2023-12-22T14:25:52;4.30;;;1.37;;
20721;SDS011;10522;52.198;9.890;2023-12-22T14:28:17;6.93;;;1.90;;
20721;SDS011;10522;52.198;9.890;2023-12-22T14:30:44;10.53;;;1.60;;
20721;SDS011;10522;52.198;9.890;2023-12-22T14:33:09;7.70;;;2.20;;
20721;SDS011;10522;52.198;9.890;2023-12-22T14:35:35;9.50;;;1.80;;
20721;SDS011;10522;52.198;9.890;2023-12-22T14:38:01;6.50;;;1.63;;
20721;SDS011;10522;52.198;9.890;2023-12-22T14:40:27;6.23;;;2.57;;
20721;SDS011;10522;52.198;9.890;2023-12-22T14:42:53;2.53;;;0.80;;
20721;SDS011;10522;52.198;9.890;2023-12-22T14:45:18;4.20;;;0.93;;
20721;SDS011;10522;52.198;9.890;2023-12-22T14:47:44;7.50;;;1.40;;
20721;SDS011;10522;52.198;9.890;2023-12-22T14:50:09;4.47;;;1.27;;
20721;SDS011;10522;52.198;9.890;2023-12-22T14:52:35;3.27;;;0.93;;
20721;SDS011;10522;52.198;9.890;2023-12-22T14:55:01;8.90;;;1.40;;
20721;SDS011;10522;52.198;9.890;2023-12-22T14:57:27;5.37;;;1.27;;
20721;SDS011;10522;52.198;9.890;2023-12-22T14:59:56;5.20;;;1.73;;
20721;SDS011;10522;52.198;9.890;2023-12-22T15:02:21;2.80;;;1.57;;
20721;SDS011;10522;52.198;9.890;2023-12-22T15:04:47;8.37;;;1.40;;